Time;durP1;ratioP1;P1;durP2;ratioP2;P2;SDS_P1;SDS_P2;PMS_P1;PMS_P2;Temp;Humidity;BMP_temperature;BMP_pressure;BME280_temperature;BME280_humidity;BME280_pressure;Samples;Min_cycle;Max_cycle;Signal;HPM_P1;HPM_P2
2022/05/09 00:00:36;;;;;;;3.67;1.23;;;;;;;;;;5077214;28;20142;-61
2022/05/09 00:03:02;;;;;;;6.40;1.10;;;;;;;;;;5070918;28;20057;-60
2022/05/09 00:05:29;;;;;;;7.60;1.40;;;;;;;;;;5065420;28;20052;-61
2022/05/09 00:07:57;;;;;;;4.65;1.05;;;;;;;;;;5057278;28;20139;-60
2022/05/09 00:10:25;;;;;;;2.33;0.85;;;;;;;;;;5062298;28;20671;-59
2022/05/09 00:12:52;;;;;;;5.53;1.27;;;;;;;;;;5071592;28;20083;-62
2022/05/09 00:15:19;;;;;;;8.32;1.30;;;;;;;;;;5065365;28;20072;-60
2022/05/09 00:17:46;;;;;;;7.03;1.40;;;;;;;;;;5061545;28;20044;-60
2022/05/09 00:20:13;;;;;;;7.25;1.35;;;;;;;;;;5063343;28;20139;-60
2022/05/09 00:22:44;;;;;;;5.78;1.20;;;;;;;;;;5067414;28;20079;-60
2022/05/09 00:25:12;;;;;;;4.22;1.17;;;;;;;;;;5062342;28;20048;-61
2022/05/09 00:27:38;;;;;;;5.10;1.35;;;;;;;;;;5087315;28;20053;-60
2022/05/09 00:30:07;;;;;;;11.80;1.23;;;;;;;;;;5062030;28;20048;-60
2022/05/09 00:32:34;;;;;;;6.18;1.40;;;;;;;;;;5067436;28;20052;-60
2022/05/09 00:35:00;;;;;;;2.25;1.10;;;;;;;;;;5075495;28;20060;-61
2022/05/09 00:37:27;;;;;;;4.82;0.93;;;;;;;;;;5085813;28;20055;-60
2022/05/09 00:39:56;;;;;;;3.33;0.88;;;;;;;;;;5070662;28;20067;-63
2022/05/09 00:42:24;;;;;;;6.50;1.40;;;;;;;;;;5063793;28;20114;-63
2022/05/09 00:44:50;;;;;;;4.80;1.40;;;;;;;;;;5068154;28;20052;-63
2022/05/09 00:47:17;;;;;;;5.60;1.52;;;;;;;;;;5059228;28;20405;-62
2022/05/09 00:49:47;;;;;;;9.63;1.38;;;;;;;;;;5068755;28;20060;-63
2022/05/09 00:52:18;;;;;;;4.75;1.25;;;;;;;;;;5077396;28;20052;-63
2022/05/09 00:54:47;;;;;;;3.85;1.20;;;;;;;;;;5085841;28;20098;-63
2022/05/09 00:57:16;;;;;;;7.38;1.30;;;;;;;;;;5075173;28;20092;-61
2022/05/09 00:59:45;;;;;;;3.63;0.88;;;;;;;;;;5082877;28;20052;-62
2022/05/09 01:02:15;;;;;;;5.88;1.33;;;;;;;;;;5062885;28;20052;-63
2022/05/09 01:04:44;;;;;;;8.10;1.60;;;;;;;;;;5062747;28;20098;-62
2022/05/09 01:07:10;;;;;;;3.63;1.02;;;;;;;;;;5066583;28;20048;-62
2022/05/09 01:09:37;;;;;;;5.22;1.60;;;;;;;;;;5060771;28;20079;-62
2022/05/09 01:12:04;;;;;;;7.20;1.20;;;;;;;;;;5069243;28;20048;-62
2022/05/09 01:14:32;;;;;;;2.70;1.17;;;;;;;;;;5060293;28;20049;-62
2022/05/09 01:17:02;;;;;;;6.03;1.50;;;;;;;;;;5069627;28;20056;-60
2022/05/09 01:19:31;;;;;;;4.85;1.40;;;;;;;;;;5061023;28;20056;-63
2022/05/09 01:22:00;;;;;;;5.70;1.38;;;;;;;;;;5068569;28;20052;-60
2022/05/09 01:24:27;;;;;;;4.13;1.10;;;;;;;;;;5064565;28;20037;-59
2022/05/09 01:26:54;;;;;;;4.80;1.63;;;;;;;;;;5076810;28;20127;-60
2022/05/09 01:29:25;;;;;;;10.18;1.42;;;;;;;;;;5069734;28;20052;-60
2022/05/09 01:31:53;;;;;;;6.88;1.73;;;;;;;;;;5076519;28;20052;-60
2022/05/09 01:34:20;;;;;;;6.23;1.27;;;;;;;;;;5083716;28;20143;-62
2022/05/09 01:36:50;;;;;;;8.15;1.40;;;;;;;;;;5061163;28;20041;-61
2022/05/09 01:39:18;;;;;;;5.35;1.20;;;;;;;;;;5068663;28;20060;-60
2022/05/09 01:41:46;;;;;;;6.20;1.27;;;;;;;;;;5061057;28;20108;-61
2022/05/09 01:44:13;;;;;;;3.67;1.10;;;;;;;;;;5085131;28;20045;-62
2022/05/09 01:49:30;;;;;;;3.88;1.23;;;;;;;;;;5064042;28;20135;-61
2022/05/09 01:51:58;;;;;;;4.40;1.27;;;;;;;;;;5085094;28;20066;-61
2022/05/09 01:54:26;;;;;;;9.07;1.77;;;;;;;;;;5060363;28;20056;-62
2022/05/09 01:56:52;;;;;;;6.45;1.38;;;;;;;;;;5066013;28;20128;-62
2022/05/09 01:59:29;;;;;;;11.23;1.75;;;;;;;;;;5056757;28;20057;-59
2022/05/09 02:01:58;;;;;;;4.82;1.48;;;;;;;;;;5058508;28;20082;-60
2022/05/09 02:04:25;;;;;;;11.80;2.00;;;;;;;;;;5048098;28;20063;-60
2022/05/09 02:06:52;;;;;;;5.30;1.25;;;;;;;;;;5051028;28;20061;-60
2022/05/09 02:09:19;;;;;;;8.55;1.30;;;;;;;;;;5066832;28;20143;-60
2022/05/09 02:11:47;;;;;;;4.80;1.33;;;;;;;;;;5049298;28;20048;-61
2022/05/09 02:14:13;;;;;;;4.85;1.00;;;;;;;;;;5068289;28;20067;-60
2022/05/09 02:16:40;;;;;;;2.75;0.90;;;;;;;;;;5044959;28;20057;-60
2022/05/09 02:19:08;;;;;;;7.72;1.52;;;;;;;;;;5051312;28;20166;-59
2022/05/09 02:21:36;;;;;;;4.43;1.48;;;;;;;;;;5045170;28;20051;-59
2022/05/09 02:24:03;;;;;;;6.35;1.63;;;;;;;;;;5085687;28;20052;-60
2022/05/09 02:26:29;;;;;;;4.20;1.00;;;;;;;;;;5082888;28;20048;-60
2022/05/09 02:28:58;;;;;;;4.43;1.35;;;;;;;;;;5068663;28;20048;-60
2022/05/09 02:31:26;;;;;;;6.55;1.38;;;;;;;;;;5051596;28;20052;-61
2022/05/09 02:33:52;;;;;;;4.43;1.23;;;;;;;;;;5044449;28;20052;-60
2022/05/09 02:36:19;;;;;;;6.07;1.33;;;;;;;;;;5072476;28;20056;-59
2022/05/09 02:38:46;;;;;;;5.20;1.40;;;;;;;;;;5054463;28;20125;-60
2022/05/09 02:41:13;;;;;;;6.43;1.40;;;;;;;;;;5051579;28;20095;-61
2022/05/09 02:43:40;;;;;;;4.70;1.23;;;;;;;;;;5056346;28;20053;-60
2022/05/09 02:46:08;;;;;;;3.78;1.33;;;;;;;;;;5084829;28;20052;-61
2022/05/09 02:48:36;;;;;;;4.80;1.38;;;;;;;;;;5085740;28;20052;-61
2022/05/09 02:51:04;;;;;;;12.47;1.30;;;;;;;;;;5060685;28;20057;-61
2022/05/09 02:53:31;;;;;;;4.28;1.20;;;;;;;;;;5051349;28;20056;-59
2022/05/09 02:55:57;;;;;;;4.40;1.30;;;;;;;;;;5067864;28;20066;-61
2022/05/09 02:58:24;;;;;;;4.47;1.15;;;;;;;;;;5051752;28;20095;-61
2022/05/09 03:00:51;;;;;;;3.47;1.15;;;;;;;;;;5050316;28;20060;-59
2022/05/09 03:06:03;;;;;;;6.00;1.35;;;;;;;;;;5071987;28;20091;-60
2022/05/09 03:08:30;;;;;;;8.55;1.25;;;;;;;;;;5104368;28;20079;-60
2022/05/09 03:10:57;;;;;;;4.10;1.30;;;;;;;;;;5078850;28;20057;-60
2022/05/09 03:13:24;;;;;;;4.68;1.40;;;;;;;;;;5083172;28;20056;-60
2022/05/09 03:15:51;;;;;;;5.93;1.50;;;;;;;;;;5067575;28;20137;-60
2022/05/09 03:18:21;;;;;;;4.25;1.20;;;;;;;;;;5061518;28;20048;-60
2022/05/09 03:20:48;;;;;;;5.68;1.38;;;;;;;;;;5084146;28;20049;-59
2022/05/09 03:23:15;;;;;;;6.47;1.40;;;;;;;;;;5061479;28;20082;-59
2022/05/09 03:25:42;;;;;;;4.47;1.23;;;;;;;;;;5083971;28;20060;-60
2022/05/09 03:28:10;;;;;;;3.95;1.20;;;;;;;;;;5078114;28;20056;-59
2022/05/09 03:30:37;;;;;;;2.50;1.08;;;;;;;;;;5084332;28;20059;-59
2022/05/09 03:33:04;;;;;;;4.20;1.48;;;;;;;;;;5082945;28;20083;-60
2022/05/09 03:35:32;;;;;;;5.40;1.48;;;;;;;;;;5081916;28;20052;-60
2022/05/09 03:37:58;;;;;;;4.03;1.27;;;;;;;;;;5087065;28;20052;-60
2022/05/09 03:40:25;;;;;;;3.00;1.00;;;;;;;;;;5063310;28;20097;-59
2022/05/09 03:42:52;;;;;;;5.95;1.20;;;;;;;;;;5072221;28;20047;-59
2022/05/09 03:45:18;;;;;;;4.72;1.25;;;;;;;;;;5073989;28;20084;-60
2022/05/09 03:47:45;;;;;;;3.45;1.27;;;;;;;;;;5067230;28;20060;-60
2022/05/09 03:50:13;;;;;;;8.90;1.75;;;;;;;;;;5067215;28;20076;-59
2022/05/09 03:52:41;;;;;;;4.40;1.35;;;;;;;;;;5065733;28;20048;-59
2022/05/09 03:55:08;;;;;;;3.28;1.10;;;;;;;;;;5083610;28;20063;-60
2022/05/09 03:57:35;;;;;;;3.35;1.13;;;;;;;;;;5078722;28;20106;-59
2022/05/09 04:00:09;;;;;;;3.88;1.40;;;;;;;;;;5066105;28;20072;-59
2022/05/09 04:02:36;;;;;;;4.65;1.52;;;;;;;;;;5061812;28;20048;-59
2022/05/09 04:05:03;;;;;;;4.20;1.23;;;;;;;;;;5066445;28;20060;-59
2022/05/09 04:07:30;;;;;;;4.78;1.38;;;;;;;;;;5061937;28;20067;-59
2022/05/09 04:09:59;;;;;;;3.55;1.33;;;;;;;;;;5066507;28;20052;-60
2022/05/09 04:12:26;;;;;;;6.15;1.50;;;;;;;;;;5061797;28;20176;-59
2022/05/09 04:17:36;;;;;;;3.30;1.10;;;;;;;;;;5083538;28;20048;-59
2022/05/09 04:20:04;;;;;;;4.18;1.40;;;;;;;;;;5061688;28;20060;-60
2022/05/09 04:22:31;;;;;;;4.78;1.50;;;;;;;;;;5066278;28;20049;-60
2022/05/09 04:24:59;;;;;;;5.30;1.27;;;;;;;;;;5070984;28;20056;-60
2022/05/09 04:27:26;;;;;;;5.38;1.25;;;;;;;;;;5066895;28;20071;-60
2022/05/09 04:29:53;;;;;;;6.00;1.38;;;;;;;;;;5062429;28;20044;-59
2022/05/09 04:32:19;;;;;;;3.92;1.20;;;;;;;;;;5066421;28;20052;-59
2022/05/09 04:34:46;;;;;;;5.90;1.95;;;;;;;;;;5048642;28;20052;-59
2022/05/09 04:37:12;;;;;;;4.38;1.40;;;;;;;;;;5050367;28;20053;-59
2022/05/09 04:39:41;;;;;;;4.22;1.27;;;;;;;;;;5047908;28;20076;-59
2022/05/09 04:42:10;;;;;;;4.63;1.13;;;;;;;;;;5066113;28;20045;-59
2022/05/09 04:44:37;;;;;;;6.57;1.38;;;;;;;;;;5079423;28;20047;-60
2022/05/09 04:47:04;;;;;;;5.93;1.48;;;;;;;;;;5049798;28;20052;-59
2022/05/09 04:49:32;;;;;;;6.80;1.77;;;;;;;;;;5064779;28;20048;-60
2022/05/09 04:51:58;;;;;;;4.75;1.13;;;;;;;;;;5063807;28;20110;-60
2022/05/09 04:54:25;;;;;;;8.23;2.65;;;;;;;;;;5082864;28;20117;-59
2022/05/09 04:56:51;;;;;;;8.05;2.03;;;;;;;;;;5063037;28;20135;-59
2022/05/09 04:59:22;;;;;;;4.57;1.30;;;;;;;;;;5065937;28;20076;-59
2022/05/09 05:01:49;;;;;;;4.00;1.50;;;;;;;;;;5060794;28;20122;-59
2022/05/09 05:04:17;;;;;;;6.00;1.27;;;;;;;;;;5075745;28;20060;-59
2022/05/09 05:06:44;;;;;;;4.75;1.30;;;;;;;;;;5077498;28;20055;-61
2022/05/09 05:09:12;;;;;;;4.10;1.25;;;;;;;;;;5064151;28;20129;-60
2022/05/09 05:11:38;;;;;;;4.85;1.42;;;;;;;;;;5063796;28;20091;-59
2022/05/09 05:14:05;;;;;;;5.43;1.75;;;;;;;;;;5071515;28;20059;-59
2022/05/09 05:19:14;;;;;;;4.05;1.58;;;;;;;;;;5067618;28;20049;-59
2022/05/09 05:21:42;;;;;;;11.30;2.70;;;;;;;;;;5066287;28;20060;-60
2022/05/09 05:24:09;;;;;;;7.60;2.38;;;;;;;;;;5067090;28;20052;-59
2022/05/09 05:26:36;;;;;;;4.82;1.70;;;;;;;;;;5067984;28;20064;-60
2022/05/09 05:29:06;;;;;;;7.10;1.65;;;;;;;;;;5063182;28;20056;-59
2022/05/09 05:31:33;;;;;;;7.30;1.60;;;;;;;;;;5068570;28;20084;-60
2022/05/09 05:34:00;;;;;;;9.73;1.73;;;;;;;;;;5062546;28;20053;-59
2022/05/09 05:36:29;;;;;;;8.13;2.10;;;;;;;;;;5085575;28;20049;-61
2022/05/09 05:38:56;;;;;;;4.07;1.60;;;;;;;;;;5064631;28;20078;-60
2022/05/09 05:41:23;;;;;;;7.22;1.45;;;;;;;;;;5083757;28;20048;-59
2022/05/09 05:43:50;;;;;;;7.78;2.08;;;;;;;;;;5082938;28;20084;-59
2022/05/09 05:46:16;;;;;;;6.72;1.60;;;;;;;;;;5082747;28;20048;-60
2022/05/09 05:48:45;;;;;;;3.55;1.30;;;;;;;;;;5086528;28;20052;-61
2022/05/09 05:51:14;;;;;;;2.38;1.35;;;;;;;;;;5064345;28;20105;-59
2022/05/09 05:53:41;;;;;;;5.05;1.60;;;;;;;;;;5071443;28;20052;-59
2022/05/09 05:56:08;;;;;;;6.28;1.77;;;;;;;;;;5064685;28;20155;-60
2022/05/09 05:58:37;;;;;;;10.63;2.10;;;;;;;;;;5068943;28;20127;-60
2022/05/09 06:01:03;;;;;;;;;;;;;;;;;;5066785;28;20052;-59
2022/05/09 06:03:30;;;;;;;2.97;1.30;;;;;;;;;;5066714;28;19924;-59
2022/05/09 06:05:58;;;;;;;10.00;1.70;;;;;;;;;;5043456;28;20068;-59
2022/05/09 06:08:24;;;;;;;12.15;2.33;;;;;;;;;;5056501;28;20058;-59
2022/05/09 06:10:52;;;;;;;8.55;2.10;;;;;;;;;;5083649;28;20076;-60
2022/05/09 06:13:19;;;;;;;4.72;1.27;;;;;;;;;;5058671;28;20149;-60
2022/05/09 06:15:46;;;;;;;12.23;2.03;;;;;;;;;;5083912;28;20060;-60
2022/05/09 06:18:13;;;;;;;5.68;1.92;;;;;;;;;;5060595;28;20087;-59
2022/05/09 06:20:43;;;;;;;6.65;1.85;;;;;;;;;;5065619;28;20052;-59
2022/05/09 06:23:13;;;;;;;6.40;1.80;;;;;;;;;;5077817;28;20052;-59
2022/05/09 06:25:40;;;;;;;6.47;1.77;;;;;;;;;;5065855;28;20063;-59
2022/05/09 06:28:07;;;;;;;6.03;1.88;;;;;;;;;;5066642;28;20052;-59
2022/05/09 06:30:34;;;;;;;7.90;1.85;;;;;;;;;;5077017;28;20123;-59
2022/05/09 06:33:01;;;;;;;8.15;1.77;;;;;;;;;;5084961;28;20048;-59
2022/05/09 06:35:28;;;;;;;3.42;1.38;;;;;;;;;;5068899;28;20101;-59
2022/05/09 06:37:58;;;;;;;8.23;1.90;;;;;;;;;;5065650;28;20098;-59
2022/05/09 06:40:27;;;;;;;10.68;2.35;;;;;;;;;;5059888;28;20064;-59
2022/05/09 06:42:55;;;;;;;4.25;1.60;;;;;;;;;;5082643;28;20052;-59
2022/05/09 06:45:22;;;;;;;11.45;2.35;;;;;;;;;;5082339;28;20049;-59
2022/05/09 06:47:49;;;;;;;6.32;1.73;;;;;;;;;;5080004;28;20056;-61
2022/05/09 06:50:16;;;;;;;6.38;2.00;;;;;;;;;;5066405;28;20052;-61
2022/05/09 06:52:43;;;;;;;5.95;1.80;;;;;;;;;;5060312;28;20056;-59
2022/05/09 06:55:10;;;;;;;10.70;2.20;;;;;;;;;;5081768;28;20056;-59
2022/05/09 06:57:39;;;;;;;7.43;2.17;;;;;;;;;;5060950;28;20041;-60
2022/05/09 07:00:08;;;;;;;6.38;1.92;;;;;;;;;;5081754;28;20053;-59
2022/05/09 07:02:34;;;;;;;9.95;2.30;;;;;;;;;;5053937;28;20052;-59
2022/05/09 07:05:30;;;;;;;13.63;2.47;;;;;;;;;;5083569;28;20108;-59
2022/05/09 07:07:56;;;;;;;7.18;1.85;;;;;;;;;;5068744;28;20041;-60
2022/05/09 07:10:26;;;;;;;9.68;2.10;;;;;;;;;;5067754;28;20071;-58
2022/05/09 07:12:54;;;;;;;8.05;1.92;;;;;;;;;;5068073;28;20048;-58
2022/05/09 07:15:23;;;;;;;7.68;1.92;;;;;;;;;;5067160;28;20113;-59
2022/05/09 07:17:51;;;;;;;6.00;1.60;;;;;;;;;;5051046;28;20140;-60
2022/05/09 07:20:18;;;;;;;9.20;1.92;;;;;;;;;;5067636;28;20052;-60
2022/05/09 07:22:45;;;;;;;6.00;1.70;;;;;;;;;;5067237;28;20052;-59
2022/05/09 07:25:13;;;;;;;12.75;2.45;;;;;;;;;;5067732;28;20052;-58
2022/05/09 07:27:42;;;;;;;5.95;1.63;;;;;;;;;;5067564;28;20056;-59
2022/05/09 07:30:11;;;;;;;4.35;1.58;;;;;;;;;;5068392;28;20086;-59
2022/05/09 07:32:38;;;;;;;10.25;2.30;;;;;;;;;;5067120;28;20063;-58
2022/05/09 07:35:05;;;;;;;13.25;2.53;;;;;;;;;;5067202;28;20056;-60
2022/05/09 07:37:32;;;;;;;9.52;1.90;;;;;;;;;;5083623;28;20060;-58
2022/05/09 07:39:59;;;;;;;13.07;3.10;;;;;;;;;;5066489;28;20152;-60
2022/05/09 07:42:26;;;;;;;9.02;2.13;;;;;;;;;;5067272;28;20075;-59
2022/05/09 07:44:56;;;;;;;6.72;1.80;;;;;;;;;;5067131;28;20056;-60
2022/05/09 07:47:24;;;;;;;11.45;2.15;;;;;;;;;;5066716;28;20056;-59
2022/05/09 07:49:51;;;;;;;8.00;1.92;;;;;;;;;;5067338;28;20075;-59
2022/05/09 07:52:17;;;;;;;8.00;1.70;;;;;;;;;;5067898;28;20052;-59
2022/05/09 07:54:46;;;;;;;8.30;2.65;;;;;;;;;;5084286;28;20049;-59
2022/05/09 07:57:12;;;;;;;;;;;;;;;;;;5067793;28;20052;-59
2022/05/09 07:59:40;;;;;;;12.93;2.50;;;;;;;;;;5084726;28;19978;-59
2022/05/09 08:02:07;;;;;;;5.68;1.55;;;;;;;;;;5058586;23;20136;-59
2022/05/09 08:04:35;;;;;;;5.53;1.75;;;;;;;;;;5019736;28;20057;-59
2022/05/09 08:07:02;;;;;;;10.88;2.20;;;;;;;;;;5028234;28;20111;-59
2022/05/09 08:09:29;;;;;;;7.88;1.63;;;;;;;;;;5017600;28;20056;-59
2022/05/09 08:11:55;;;;;;;8.80;1.83;;;;;;;;;;5027968;28;20081;-59
2022/05/09 08:14:22;;;;;;;9.05;2.30;;;;;;;;;;5026837;28;20057;-59
2022/05/09 08:16:48;;;;;;;7.10;1.60;;;;;;;;;;5036622;28;20052;-59
2022/05/09 08:19:15;;;;;;;9.00;1.90;;;;;;;;;;5043383;28;20120;-59
2022/05/09 08:21:44;;;;;;;9.23;2.55;;;;;;;;;;5015430;28;20049;-59
2022/05/09 08:24:10;;;;;;;8.65;1.50;;;;;;;;;;5030432;28;20060;-59
2022/05/09 08:26:37;;;;;;;7.93;1.95;;;;;;;;;;5024276;28;20081;-60
2022/05/09 08:29:05;;;;;;;6.95;1.70;;;;;;;;;;5028759;28;20076;-60
2022/05/09 08:31:31;;;;;;;13.57;2.30;;;;;;;;;;5020799;28;20053;-60
2022/05/09 08:33:59;;;;;;;3.80;1.40;;;;;;;;;;5043209;28;20380;-59
2022/05/09 08:39:15;;;;;;;5.45;1.65;;;;;;;;;;5026105;28;20053;-60
2022/05/09 08:41:49;;;;;;;11.80;1.75;;;;;;;;;;5052591;28;20049;-60
2022/05/09 08:44:20;;;;;;;9.50;2.10;;;;;;;;;;5019532;28;20053;-60
2022/05/09 08:46:53;;;;;;;5.10;1.40;;;;;;;;;;5029337;28;20124;-61
2022/05/09 08:49:30;;;;;;;8.25;1.50;;;;;;;;;;5028274;28;20049;-61
2022/05/09 08:52:00;;;;;;;8.55;1.77;;;;;;;;;;5030671;28;20114;-60
2022/05/09 08:54:29;;;;;;;8.15;1.83;;;;;;;;;;5039591;28;20070;-60
2022/05/09 08:56:58;;;;;;;4.78;1.52;;;;;;;;;;5031129;28;20114;-60
2022/05/09 08:59:27;;;;;;;8.02;1.98;;;;;;;;;;5036601;28;20057;-60
2022/05/09 09:01:55;;;;;;;7.28;2.05;;;;;;;;;;5022195;28;20058;-60
2022/05/09 09:04:23;;;;;;;10.85;1.98;;;;;;;;;;5028916;28;20080;-60
2022/05/09 09:06:56;;;;;;;4.22;1.40;;;;;;;;;;5015520;28;20057;-61
2022/05/09 09:09:30;;;;;;;3.80;1.23;;;;;;;;;;5045196;28;20115;-60
2022/05/09 09:12:02;;;;;;;10.32;2.00;;;;;;;;;;5035878;28;20114;-60
2022/05/09 09:14:38;;;;;;;6.60;2.30;;;;;;;;;;5029538;28;20088;-62
2022/05/09 09:17:10;;;;;;;5.75;1.73;;;;;;;;;;5020786;28;20056;-61
2022/05/09 09:19:52;;;;;;;8.98;1.70;;;;;;;;;;5028997;28;20110;-60
2022/05/09 09:22:25;;;;;;;11.77;1.77;;;;;;;;;;5020189;28;20068;-61
2022/05/09 09:25:01;;;;;;;10.13;1.95;;;;;;;;;;5030475;28;20060;-61
2022/05/09 09:27:34;;;;;;;6.75;2.00;;;;;;;;;;5023322;28;20067;-60
2022/05/09 09:30:02;;;;;;;6.60;1.60;;;;;;;;;;5027540;28;20132;-61
2022/05/09 09:32:29;;;;;;;6.63;1.42;;;;;;;;;;5030362;28;20053;-62
2022/05/09 09:34:58;;;;;;;8.52;1.73;;;;;;;;;;5020346;28;20124;-61
2022/05/09 09:37:28;;;;;;;5.05;1.50;;;;;;;;;;5028593;28;20044;-60
2022/05/09 09:39:55;;;;;;;5.38;1.70;;;;;;;;;;5018606;28;20053;-61
2022/05/09 09:42:21;;;;;;;4.85;1.50;;;;;;;;;;5030347;28;20041;-61
2022/05/09 09:44:51;;;;;;;8.20;1.85;;;;;;;;;;5020462;28;20125;-61
2022/05/09 09:47:25;;;;;;;9.15;1.58;;;;;;;;;;5029051;28;20055;-61
2022/05/09 09:50:10;;;;;;;8.57;1.42;;;;;;;;;;5042149;28;20053;-63
2022/05/09 09:52:40;;;;;;;6.25;1.55;;;;;;;;;;5029974;28;20053;-61
2022/05/09 09:55:07;;;;;;;4.88;1.30;;;;;;;;;;5029519;28;20060;-61
2022/05/09 09:57:36;;;;;;;7.25;1.40;;;;;;;;;;5020224;28;20048;-62
2022/05/09 10:00:14;;;;;;;5.05;1.75;;;;;;;;;;5028994;28;20132;-61
2022/05/09 10:02:41;;;;;;;3.78;1.23;;;;;;;;;;5031209;28;20053;-61
2022/05/09 10:05:14;;;;;;;4.60;1.40;;;;;;;;;;5030461;28;20053;-61
2022/05/09 10:07:43;;;;;;;2.92;1.15;;;;;;;;;;5028674;28;20057;-61
2022/05/09 10:10:12;;;;;;;3.75;1.70;;;;;;;;;;5012465;28;20057;-61
2022/05/09 10:12:39;;;;;;;6.85;1.42;;;;;;;;;;5029326;28;20053;-62
2022/05/09 10:15:22;;;;;;;5.68;1.73;;;;;;;;;;5013346;28;20053;-60
2022/05/09 10:17:48;;;;;;;4.82;1.25;;;;;;;;;;5013430;28;20049;-60
2022/05/09 10:20:27;;;;;;;8.38;2.10;;;;;;;;;;5013535;28;20057;-62
2022/05/09 10:25:56;;;;;;;11.48;2.72;;;;;;;;;;5011890;28;20016;-61
2022/05/09 10:28:23;;;;;;;6.55;1.80;;;;;;;;;;4995692;28;20063;-62
2022/05/09 10:30:54;;;;;;;6.53;1.70;;;;;;;;;;5029262;28;20057;-63
2022/05/09 10:33:25;;;;;;;10.45;2.10;;;;;;;;;;5028716;28;20076;-62
2022/05/09 10:35:53;;;;;;;5.50;1.70;;;;;;;;;;5028437;28;20049;-61
2022/05/09 10:38:22;;;;;;;6.05;1.50;;;;;;;;;;5011858;28;20136;-62
2022/05/09 10:40:51;;;;;;;10.55;1.65;;;;;;;;;;5011705;28;20053;-61
2022/05/09 10:43:22;;;;;;;6.85;1.60;;;;;;;;;;5012742;28;20119;-63
2022/05/09 10:45:51;;;;;;;6.10;1.60;;;;;;;;;;5028237;28;20073;-65
2022/05/09 10:48:20;;;;;;;3.83;1.20;;;;;;;;;;5028000;28;20073;-63
2022/05/09 10:50:50;;;;;;;4.70;1.23;;;;;;;;;;5011321;28;20056;-63
2022/05/09 10:53:21;;;;;;;8.63;1.88;;;;;;;;;;5027473;28;20057;-63
2022/05/09 10:55:53;;;;;;;9.13;2.00;;;;;;;;;;5011233;28;20057;-63
2022/05/09 10:58:24;;;;;;;11.48;2.60;;;;;;;;;;5010918;28;20083;-63
2022/05/09 11:00:56;;;;;;;3.83;1.30;;;;;;;;;;5010900;28;20049;-61
2022/05/09 11:03:25;;;;;;;5.38;1.38;;;;;;;;;;5010567;28;20083;-62
2022/05/09 11:05:58;;;;;;;6.65;1.67;;;;;;;;;;5010757;28;20057;-61
2022/05/09 11:08:31;;;;;;;11.85;2.40;;;;;;;;;;5010535;28;20045;-61
2022/05/09 11:11:03;;;;;;;5.25;1.45;;;;;;;;;;5010896;28;20119;-65
2022/05/09 11:13:35;;;;;;;3.13;1.10;;;;;;;;;;5011619;28;20075;-64
2022/05/09 11:16:09;;;;;;;12.70;2.35;;;;;;;;;;5027703;28;20073;-64
2022/05/09 11:18:56;;;;;;;7.03;1.85;;;;;;;;;;5028043;28;20054;-62
2022/05/09 11:21:29;;;;;;;3.90;1.10;;;;;;;;;;5009902;28;20080;-62
2022/05/09 11:24:03;;;;;;;4.05;1.33;;;;;;;;;;5028386;28;20133;-61
2022/05/09 11:26:32;;;;;;;8.57;1.73;;;;;;;;;;5011114;28;20044;-61
2022/05/09 11:29:09;;;;;;;9.85;1.85;;;;;;;;;;5011527;28;20053;-62
2022/05/09 11:31:45;;;;;;;4.05;1.10;;;;;;;;;;5010812;28;20057;-62
2022/05/09 11:34:19;;;;;;;7.10;2.03;;;;;;;;;;5011353;28;20064;-61
2022/05/09 11:36:51;;;;;;;2.92;1.10;;;;;;;;;;5010728;28;20156;-62
2022/05/09 11:39:22;;;;;;;3.47;1.17;;;;;;;;;;5027744;28;20052;-63
2022/05/09 11:41:52;;;;;;;3.03;1.10;;;;;;;;;;5029294;28;20104;-64
2022/05/09 11:44:20;;;;;;;3.88;1.17;;;;;;;;;;5011052;28;20049;-62
2022/05/09 11:47:13;;;;;;;5.38;1.48;;;;;;;;;;5011658;28;20057;-64
2022/05/09 11:49:46;;;;;;;3.80;1.23;;;;;;;;;;5027760;28;20065;-63
2022/05/09 11:52:25;;;;;;;7.22;1.70;;;;;;;;;;5011332;28;20053;-61
2022/05/09 11:54:53;;;;;;;4.78;1.48;;;;;;;;;;5010623;28;20099;-61
2022/05/09 11:57:25;;;;;;;5.75;1.40;;;;;;;;;;5027174;28;20065;-62
2022/05/09 11:59:54;;;;;;;4.78;1.10;;;;;;;;;;5010657;28;20057;-60
2022/05/09 12:02:36;;;;;;;4.63;1.05;;;;;;;;;;5061974;23;20072;-61
2022/05/09 12:05:24;;;;;;;6.70;2.03;;;;;;;;;;5008084;28;20241;-63
2022/05/09 12:07:54;;;;;;;4.93;1.40;;;;;;;;;;5069718;28;20053;-63
2022/05/09 12:10:28;;;;;;;6.80;2.10;;;;;;;;;;5038095;28;20060;-62
2022/05/09 12:12:56;;;;;;;8.70;1.80;;;;;;;;;;5037748;28;20052;-63
2022/05/09 12:15:46;;;;;;;6.53;1.95;;;;;;;;;;5028027;28;20061;-64
2022/05/09 12:18:20;;;;;;;6.45;1.80;;;;;;;;;;5023750;28;20071;-63
2022/05/09 12:21:06;;;;;;;7.10;2.00;;;;;;;;;;5043161;28;20148;-64
2022/05/09 12:24:06;;;;;;;2.95;1.50;;;;;;;;;;5056735;28;20094;-62
2022/05/09 12:26:35;;;;;;;8.45;2.00;;;;;;;;;;5065141;28;20078;-64
2022/05/09 12:29:24;;;;;;;5.40;1.30;;;;;;;;;;5039274;28;20143;-64
2022/05/09 12:31:52;;;;;;;7.85;2.00;;;;;;;;;;5029732;28;20060;-64
2022/05/09 12:34:22;;;;;;;4.65;1.33;;;;;;;;;;5038580;28;20140;-64
2022/05/09 12:36:50;;;;;;;4.63;1.83;;;;;;;;;;5040186;28;20053;-65
2022/05/09 12:39:25;;;;;;;3.83;1.10;;;;;;;;;;5065658;28;20056;-64
2022/05/09 12:41:55;;;;;;;4.22;1.13;;;;;;;;;;5055710;28;20064;-62
2022/05/09 12:44:23;;;;;;;13.73;2.15;;;;;;;;;;5041278;28;20071;-64
2022/05/09 12:46:51;;;;;;;4.15;1.55;;;;;;;;;;5052056;28;20052;-62
2022/05/09 12:49:21;;;;;;;9.15;1.45;;;;;;;;;;5032881;28;20044;-62
2022/05/09 12:51:49;;;;;;;4.88;1.40;;;;;;;;;;5039254;28;20080;-62
2022/05/09 12:54:17;;;;;;;4.90;1.63;;;;;;;;;;5035540;28;20068;-65
2022/05/09 12:56:48;;;;;;;5.75;2.15;;;;;;;;;;5039410;28;20064;-63
2022/05/09 12:59:16;;;;;;;10.50;2.85;;;;;;;;;;5039516;28;20079;-62
2022/05/09 13:01:44;;;;;;;13.30;2.20;;;;;;;;;;5024935;28;20059;-64
2022/05/09 13:04:19;;;;;;;8.10;2.60;;;;;;;;;;5034992;28;20140;-64
2022/05/09 13:06:46;;;;;;;6.10;1.55;;;;;;;;;;5031479;28;20107;-64
2022/05/09 13:09:16;;;;;;;12.00;2.50;;;;;;;;;;5041742;28;20060;-61
2022/05/09 13:11:47;;;;;;;10.23;2.00;;;;;;;;;;5063749;28;20060;-61
2022/05/09 13:14:17;;;;;;;12.13;2.67;;;;;;;;;;5078581;28;20105;-62
2022/05/09 13:16:51;;;;;;;11.30;2.70;;;;;;;;;;5033018;28;20138;-62
2022/05/09 13:19:18;;;;;;;9.07;1.83;;;;;;;;;;5040987;28;20133;-65
2022/05/09 13:21:47;;;;;;;10.65;2.70;;;;;;;;;;5036214;28;20060;-62
2022/05/09 13:24:16;;;;;;;8.07;2.20;;;;;;;;;;5035937;28;20061;-62
2022/05/09 13:26:46;;;;;;;5.40;1.80;;;;;;;;;;5039395;28;20057;-62
2022/05/09 13:29:22;;;;;;;10.02;1.80;;;;;;;;;;5029318;28;20056;-61
2022/05/09 13:31:51;;;;;;;6.03;1.63;;;;;;;;;;5073384;28;20084;-62
2022/05/09 13:34:19;;;;;;;4.80;1.48;;;;;;;;;;5040434;28;20132;-62
2022/05/09 13:36:46;;;;;;;9.85;3.20;;;;;;;;;;5040812;28;20071;-62
2022/05/09 13:39:22;;;;;;;9.60;3.00;;;;;;;;;;5028118;28;20053;-62
2022/05/09 13:41:49;;;;;;;6.70;2.55;;;;;;;;;;5038327;28;20036;-62
2022/05/09 13:44:20;;;;;;;5.40;1.77;;;;;;;;;;5031022;28;20068;-62
2022/05/09 13:46:47;;;;;;;2.70;1.48;;;;;;;;;;5066657;28;20057;-62
2022/05/09 13:49:17;;;;;;;7.10;1.52;;;;;;;;;;5052289;28;20053;-62
2022/05/09 13:51:52;;;;;;;3.00;1.45;;;;;;;;;;5023029;28;20060;-63
2022/05/09 13:54:21;;;;;;;11.43;2.63;;;;;;;;;;5069195;28;20049;-62
2022/05/09 13:56:48;;;;;;;6.90;2.90;;;;;;;;;;5013794;28;20057;-62
2022/05/09 13:59:17;;;;;;;4.72;1.67;;;;;;;;;;5044848;28;20102;-61
2022/05/09 14:01:44;;;;;;;5.95;1.60;;;;;;;;;;5025887;28;20118;-62
2022/05/09 14:04:13;;;;;;;9.48;2.70;;;;;;;;;;5051341;28;20052;-63
2022/05/09 14:06:44;;;;;;;5.47;1.63;;;;;;;;;;5026575;28;20241;-61
2022/05/09 14:09:15;;;;;;;4.15;1.45;;;;;;;;;;5057883;28;20084;-62
2022/05/09 14:11:53;;;;;;;3.95;1.40;;;;;;;;;;5059537;28;20128;-62
2022/05/09 14:14:33;;;;;;;4.53;1.27;;;;;;;;;;5053126;28;20059;-63
2022/05/09 14:17:01;;;;;;;5.63;1.80;;;;;;;;;;5033656;28;20053;-62
2022/05/09 14:19:35;;;;;;;6.97;2.22;;;;;;;;;;5019891;28;20045;-62
2022/05/09 14:22:05;;;;;;;6.45;2.53;;;;;;;;;;5037826;28;20053;-61
2022/05/09 14:24:32;;;;;;;4.00;1.75;;;;;;;;;;5032511;28;20049;-62
2022/05/09 14:30:01;;;;;;;7.47;1.30;;;;;;;;;;4938967;28;20055;-62
2022/05/09 14:32:40;;;;;;;6.35;1.67;;;;;;;;;;4958172;28;20077;-63
2022/05/09 14:35:08;;;;;;;5.82;1.48;;;;;;;;;;5011448;28;20055;-62
2022/05/09 14:37:47;;;;;;;4.60;1.33;;;;;;;;;;5031951;28;20053;-61
2022/05/09 14:40:18;;;;;;;6.75;2.75;;;;;;;;;;5029579;28;20045;-62
2022/05/09 14:42:53;;;;;;;5.88;1.75;;;;;;;;;;5035992;28;20144;-61
2022/05/09 14:45:20;;;;;;;9.07;3.53;;;;;;;;;;5030503;28;20077;-62
2022/05/09 14:47:49;;;;;;;8.45;2.65;;;;;;;;;;5033922;28;20083;-62
2022/05/09 14:50:18;;;;;;;6.65;2.08;;;;;;;;;;5026649;28;20053;-62
2022/05/09 14:52:50;;;;;;;6.00;2.17;;;;;;;;;;5035828;28;20083;-62
2022/05/09 14:58:05;;;;;;;11.55;2.97;;;;;;;;;;5029868;28;20069;-62
2022/05/09 15:00:36;;;;;;;3.70;1.50;;;;;;;;;;5026198;28;20056;-62
2022/05/09 15:03:04;;;;;;;6.55;1.67;;;;;;;;;;5018849;28;20127;-63
2022/05/09 15:05:31;;;;;;;11.57;1.88;;;;;;;;;;4998255;28;20057;-62
2022/05/09 15:07:59;;;;;;;7.28;1.75;;;;;;;;;;5014474;28;20057;-66
2022/05/09 15:10:28;;;;;;;9.55;1.80;;;;;;;;;;5006336;28;20052;-64
2022/05/09 15:12:55;;;;;;;5.20;2.20;;;;;;;;;;5026387;28;20131;-62
2022/05/09 15:15:22;;;;;;;11.73;4.37;;;;;;;;;;5010061;28;20049;-62
2022/05/09 15:17:48;;;;;;;8.00;3.47;;;;;;;;;;5009532;28;20107;-62